Time;durP1;ratioP1;P1;durP2;ratioP2;P2;SDS_P1;SDS_P2;PMS_P1;PMS_P2;Temp;Humidity;BMP_temperature;BMP_pressure;BME280_temperature;BME280_humidity;BME280_pressure;Samples;Min_cycle;Max_cycle;Signal;HPM_P1;HPM_P2
2022/02/24 00:01:42;;;;;;;7.97;3.93;;;;;;;4.91;96.99;152623.50;5047229;28;20447;-79
2022/02/24 00:04:18;;;;;;;4.50;3.90;;;;;;;4.87;97.57;152614.47;5045787;28;20457;-79
2022/02/24 00:06:55;;;;;;;4.30;3.27;;;;;;;4.85;98.29;152609.31;5040618;28;20454;-79
2022/02/24 00:09:31;;;;;;;5.43;4.00;;;;;;;4.87;97.34;152613.22;5041018;28;20811;-79
2022/02/24 00:12:07;;;;;;;6.40;4.53;;;;;;;4.88;97.27;152617.06;5014037;28;20494;-79
2022/02/24 00:14:42;;;;;;;9.67;4.57;;;;;;;4.89;97.07;152619.66;5028956;28;20439;-79
2022/02/24 00:17:18;;;;;;;5.50;4.10;;;;;;;4.90;97.52;152622.19;5045610;28;20446;-79
2022/02/24 00:19:54;;;;;;;6.50;5.07;;;;;;;4.92;96.50;152627.34;5015223;28;20467;-78
2022/02/24 00:22:31;;;;;;;8.27;5.13;;;;;;;4.95;97.03;152632.53;5041979;28;20596;-79
2022/02/24 00:25:08;;;;;;;6.03;5.43;;;;;;;4.95;97.82;152632.53;5043206;28;20443;-79
2022/02/24 00:27:45;;;;;;;8.53;6.00;;;;;;;4.98;97.70;152640.28;5045524;28;20451;-78
2022/02/24 00:30:21;;;;;;;6.37;4.73;;;;;;;4.99;96.89;152644.13;5045603;28;20439;-79
2022/02/24 00:32:56;;;;;;;8.93;4.60;;;;;;;5.05;97.35;152658.31;5028219;28;20504;-79
2022/02/24 00:35:32;;;;;;;5.73;4.13;;;;;;;5.05;96.80;152658.31;5043426;28;20446;-78
2022/02/24 00:38:09;;;;;;;5.80;5.20;;;;;;;5.08;96.03;152667.34;5047606;28;20545;-78
2022/02/24 00:40:44;;;;;;;4.63;4.00;;;;;;;5.10;97.83;152671.19;5026473;28;20466;-78
2022/02/24 00:43:20;;;;;;;4.90;4.03;;;;;;;5.12;96.44;152676.31;5047336;28;20840;-79
2022/02/24 00:45:55;;;;;;;5.17;4.17;;;;;;;5.14;97.48;152681.47;5027059;28;20443;-79
2022/02/24 00:48:31;;;;;;;4.70;3.70;;;;;;;5.15;97.94;152685.38;5042605;28;20565;-79
2022/02/24 00:51:06;;;;;;;4.43;3.27;;;;;;;5.17;97.64;152689.22;5030048;28;20931;-79
2022/02/24 00:53:43;;;;;;;4.17;3.77;;;;;;;5.19;97.38;152694.41;5041990;28;20443;-78
2022/02/24 00:56:19;;;;;;;5.27;4.20;;;;;;;5.17;97.78;152690.50;5027872;28;20440;-79
2022/02/24 00:58:55;;;;;;;5.77;4.47;;;;;;;5.19;97.13;152694.41;5043476;28;20842;-79
2022/02/24 01:01:30;;;;;;;5.80;4.03;;;;;;;5.22;95.71;152702.09;5044636;28;20500;-79
2022/02/24 01:04:06;;;;;;;4.90;4.40;;;;;;;5.22;96.80;152703.41;5042058;28;20436;-79
2022/02/24 01:06:42;;;;;;;4.40;3.70;;;;;;;5.23;97.06;152704.69;5043878;28;20930;-79
2022/02/24 01:09:20;;;;;;;5.03;4.50;;;;;;;5.27;97.50;152716.28;5025721;28;20446;-79
2022/02/24 01:11:56;;;;;;;5.17;4.47;;;;;;;5.26;97.54;152713.75;5013883;28;20569;-79
2022/02/24 01:14:31;;;;;;;6.43;4.43;;;;;;;5.29;97.54;152720.19;5039510;28;20462;-79
2022/02/24 01:17:07;;;;;;;7.13;4.47;;;;;;;5.32;97.51;152727.91;5014166;28;20458;-79
2022/02/24 01:19:43;;;;;;;5.03;4.53;;;;;;;5.28;96.57;152717.59;5044279;28;20459;-79
2022/02/24 01:22:18;;;;;;;5.77;4.10;;;;;;;5.31;96.61;152725.31;5043169;28;20458;-79
2022/02/24 01:24:55;;;;;;;4.87;3.90;;;;;;;5.27;96.24;152715.03;5026584;28;20929;-79
2022/02/24 01:27:31;;;;;;;5.23;4.20;;;;;;;5.27;96.67;152715.03;5048117;28;20813;-79
2022/02/24 01:30:07;;;;;;;8.00;5.10;;;;;;;5.29;97.08;152720.19;5029171;28;20809;-79
2022/02/24 01:32:43;;;;;;;6.33;4.40;;;;;;;5.27;96.48;152715.03;5045393;28;20486;-79
2022/02/24 01:35:18;;;;;;;5.33;4.40;;;;;;;5.26;95.90;152713.75;5032057;28;20537;-79
2022/02/24 01:37:54;;;;;;;6.20;5.07;;;;;;;5.23;97.37;152706.00;5028647;28;20549;-79
2022/02/24 01:40:31;;;;;;;5.47;4.60;;;;;;;5.17;96.86;152690.50;5030728;28;20822;-79
2022/02/24 01:43:06;;;;;;;7.93;4.53;;;;;;;5.16;97.31;152686.66;5046184;28;20889;-79
2022/02/24 01:45:42;;;;;;;8.23;5.50;;;;;;;5.15;96.91;152684.06;5027613;28;20439;-78
2022/02/24 01:48:18;;;;;;;7.10;5.10;;;;;;;5.15;97.20;152684.06;5013002;28;20455;-78
2022/02/24 01:50:53;;;;;;;8.83;5.57;;;;;;;5.13;97.07;152678.94;5043712;28;21597;-78
2022/02/24 01:53:29;;;;;;;6.30;4.60;;;;;;;5.09;96.15;152668.59;5043730;28;20439;-78
2022/02/24 01:56:07;;;;;;;7.50;4.93;;;;;;;5.07;97.18;152663.44;5045698;28;20447;-78
2022/02/24 01:58:43;;;;;;;8.53;4.77;;;;;;;5.05;96.93;152659.59;5045261;28;20964;-78
2022/02/24 02:01:19;;;;;;;5.27;4.27;;;;;;;5.03;97.84;152653.16;5015287;28;20470;-78
2022/02/24 02:03:54;;;;;;;6.20;4.67;;;;;;;4.98;97.49;152640.28;5048607;28;20809;-78
2022/02/24 02:06:30;;;;;;;4.97;4.10;;;;;;;4.97;98.01;152637.69;5031395;28;20455;-78
2022/02/24 02:09:06;;;;;;;3.83;3.43;;;;;;;4.93;97.25;152629.94;5015334;28;20823;-78
2022/02/24 02:11:43;;;;;;;4.73;3.17;;;;;;;4.87;98.30;152614.47;5047203;28;20798;-78
2022/02/24 02:14:18;;;;;;;4.57;3.70;;;;;;;4.85;98.02;152609.31;5050557;28;20436;-78
2022/02/24 02:16:56;;;;;;;4.23;3.57;;;;;;;4.82;98.67;152600.28;5035032;28;20481;-78
2022/02/24 02:19:31;;;;;;;4.47;3.40;;;;;;;4.83;97.94;152604.16;5032884;28;20447;-77
2022/02/24 02:22:08;;;;;;;3.63;3.30;;;;;;;4.84;99.10;152605.47;5049243;28;20436;-77
2022/02/24 02:24:58;;;;;;;4.90;3.33;;;;;;;4.87;98.59;152614.47;5048413;28;20568;-77
2022/02/24 02:27:34;;;;;;;3.87;2.90;;;;;;;4.86;98.40;152611.91;5048163;28;20439;-78
2022/02/24 02:30:10;;;;;;;3.90;3.50;;;;;;;4.89;98.59;152618.34;5030275;28;20427;-78
2022/02/24 02:32:45;;;;;;;4.60;3.70;;;;;;;4.87;98.51;152614.47;5017902;28;20956;-77
2022/02/24 02:35:21;;;;;;;4.20;3.80;;;;;;;4.97;98.38;152638.97;5031867;28;20458;-77
2022/02/24 02:37:58;;;;;;;4.50;3.20;;;;;;;5.01;99.44;152649.25;5015741;28;20458;-79
2022/02/24 02:40:37;;;;;;;4.30;3.53;;;;;;;5.04;98.53;152657.00;5051141;28;20841;-79
2022/02/24 02:43:13;;;;;;;5.10;3.43;;;;;;;5.09;98.13;152669.88;5049947;28;20937;-79
2022/02/24 02:45:49;;;;;;;4.50;3.13;;;;;;;5.12;98.27;152676.31;5030994;28;20434;-79
2022/02/24 02:48:24;;;;;;;4.30;3.60;;;;;;;5.12;97.94;152677.63;5045954;28;20455;-79
2022/02/24 02:51:00;;;;;;;4.43;3.20;;;;;;;5.14;97.76;152681.47;5047797;28;20443;-79
2022/02/24 02:53:37;;;;;;;4.37;3.93;;;;;;;5.13;98.66;152678.94;5030926;28;20447;-79
2022/02/24 02:56:13;;;;;;;4.00;3.10;;;;;;;5.15;97.74;152684.06;5014668;28;20439;-79
2022/02/24 02:58:48;;;;;;;3.70;3.30;;;;;;;5.18;99.12;152691.81;5047656;28;20431;-79
2022/02/24 03:01:24;;;;;;;3.07;2.77;;;;;;;5.18;98.51;152691.81;5031367;28;21001;-79
2022/02/24 03:04:00;;;;;;;2.87;2.57;;;;;;;5.21;98.67;152700.84;5031214;28;20431;-79
2022/02/24 03:06:35;;;;;;;3.77;3.07;;;;;;;5.24;99.40;152707.28;5048928;28;20854;-79
2022/02/24 03:09:12;;;;;;;6.43;3.60;;;;;;;5.28;98.44;152717.59;5029230;28;20434;-79
2022/02/24 03:11:48;;;;;;;4.30;3.20;;;;;;;5.28;98.69;152718.88;5049932;28;20443;-79
2022/02/24 03:14:23;;;;;;;3.80;3.17;;;;;;;5.31;98.33;152726.63;5045574;28;20774;-79
2022/02/24 03:16:59;;;;;;;4.60;3.10;;;;;;;5.32;98.90;152727.91;5048654;28;20454;-79
2022/02/24 03:19:36;;;;;;;4.67;3.47;;;;;;;5.35;98.46;152736.91;5046430;28;20447;-79
2022/02/24 03:22:12;;;;;;;5.03;3.70;;;;;;;5.35;99.47;152735.63;5033183;28;20482;-79
2022/02/24 03:24:50;;;;;;;3.90;2.97;;;;;;;5.35;97.86;152736.91;5030997;28;20448;-79
2022/02/24 03:27:25;;;;;;;3.30;3.00;;;;;;;5.36;98.13;152738.22;5012826;28;21025;-79
2022/02/24 03:30:01;;;;;;;4.33;3.93;;;;;;;5.38;98.09;152744.66;5029178;28;20823;-79
2022/02/24 03:32:36;;;;;;;3.73;3.03;;;;;;;5.41;98.33;152751.09;5048433;28;20442;-79
2022/02/24 03:35:12;;;;;;;7.03;3.90;;;;;;;5.39;98.61;152745.94;5032475;28;20779;-79
2022/02/24 03:37:48;;;;;;;3.87;3.43;;;;;;;5.40;97.98;152748.56;5046497;28;20446;-78
2022/02/24 03:40:26;;;;;;;3.30;2.83;;;;;;;5.45;98.24;152761.44;5045659;28;20470;-79
2022/02/24 03:43:02;;;;;;;3.53;3.20;;;;;;;5.48;98.44;152769.19;5031231;28;20451;-79
2022/02/24 03:45:37;;;;;;;4.20;3.23;;;;;;;5.47;97.96;152767.88;5043974;28;20450;-79
2022/02/24 03:48:13;;;;;;;4.33;3.63;;;;;;;5.47;98.32;152766.59;5015469;28;20957;-79
2022/02/24 03:50:49;;;;;;;3.70;3.40;;;;;;;5.49;97.26;152771.72;5044755;28;20457;-79
2022/02/24 03:53:27;;;;;;;4.87;3.50;;;;;;;5.47;97.81;152766.59;5045366;28;20459;-79
2022/02/24 03:56:04;;;;;;;4.10;3.43;;;;;;;5.47;97.85;152766.59;5048160;28;20443;-79
2022/02/24 03:58:40;;;;;;;3.20;2.90;;;;;;;5.47;98.12;152766.59;5023110;28;20489;-79
2022/02/24 04:01:16;;;;;;;4.60;2.70;;;;;;;5.44;98.54;152758.84;4992523;28;20535;-79
2022/02/24 04:03:51;;;;;;;6.20;3.70;;;;;;;5.40;99.02;152748.56;5008233;28;20459;-79
2022/02/24 04:06:27;;;;;;;3.73;3.43;;;;;;;5.40;98.53;152748.56;4991819;28;20475;-79
2022/02/24 04:09:03;;;;;;;4.03;2.83;;;;;;;5.39;98.60;152745.94;5005588;28;20504;-79
2022/02/24 04:11:40;;;;;;;3.53;2.77;;;;;;;5.40;98.23;152748.56;5025547;28;20440;-79
2022/02/24 04:14:15;;;;;;;3.70;3.27;;;;;;;5.38;98.19;152744.66;5007080;28;20486;-79
2022/02/24 04:16:51;;;;;;;3.57;3.27;;;;;;;5.35;99.35;152735.63;5021843;28;20441;-79
2022/02/24 04:19:27;;;;;;;3.30;3.00;;;;;;;5.33;98.61;152731.78;5005617;28;20440;-79
2022/02/24 04:22:02;;;;;;;5.10;3.90;;;;;;;5.32;98.42;152729.16;5007573;28;20571;-79
2022/02/24 04:24:38;;;;;;;3.93;3.30;;;;;;;5.30;99.11;152722.72;5006071;28;20448;-79
2022/02/24 04:27:15;;;;;;;3.43;3.13;;;;;;;5.29;99.23;152720.19;5006778;28;20449;-79
2022/02/24 04:29:50;;;;;;;4.23;3.73;;;;;;;5.21;98.76;152699.56;5021298;28;20440;-79
2022/02/24 04:32:26;;;;;;;4.30;3.50;;;;;;;5.16;98.33;152686.66;5003449;28;20851;-78
2022/02/24 04:35:02;;;;;;;4.27;3.20;;;;;;;5.13;99.88;152680.22;5009874;28;20460;-79
2022/02/24 04:37:37;;;;;;;4.37;3.40;;;;;;;5.11;99.94;152673.78;5006966;28;20460;-79
2022/02/24 04:40:14;;;;;;;4.63;4.23;;;;;;;5.07;99.18;152663.44;5020690;28;20507;-79
2022/02/24 04:42:51;;;;;;;4.13;3.70;;;;;;;5.08;99.10;152666.03;5022370;28;20554;-79
2022/02/24 04:45:26;;;;;;;5.97;4.37;;;;;;;5.07;99.39;152664.75;5003612;28;20823;-79
2022/02/24 04:48:02;;;;;;;5.33;3.77;;;;;;;5.14;98.23;152681.47;5008345;28;20440;-79
2022/02/24 04:50:38;;;;;;;5.67;4.70;;;;;;;5.13;99.77;152680.22;5023413;28;20451;-79
2022/02/24 04:53:14;;;;;;;4.57;3.60;;;;;;;5.10;100.00;152672.47;5008177;28;20769;-79
2022/02/24 04:55:49;;;;;;;5.27;3.90;;;;;;;5.09;99.68;152668.59;5006438;28;20956;-79
2022/02/24 04:58:26;;;;;;;4.80;4.10;;;;;;;5.16;99.68;152687.97;5017931;28;20477;-79
2022/02/24 05:01:02;;;;;;;6.13;3.90;;;;;;;5.19;100.00;152694.41;5019255;28;20863;-79
2022/02/24 05:03:37;;;;;;;7.90;4.20;;;;;;;5.15;100.00;152685.38;5007129;28;20986;-78
2022/02/24 05:06:13;;;;;;;5.90;4.40;;;;;;;5.16;100.00;152686.66;5008251;28;20440;-79
2022/02/24 05:08:48;;;;;;;5.40;4.53;;;;;;;5.15;99.97;152684.06;5003322;28;20548;-78
2022/02/24 05:11:24;;;;;;;5.30;4.03;;;;;;;5.11;100.00;152673.78;5022550;28;20518;-79
2022/02/24 05:14:01;;;;;;;5.47;4.47;;;;;;;5.08;100.00;152667.34;5023787;28;20453;-78
2022/02/24 05:16:36;;;;;;;7.67;4.57;;;;;;;5.02;100.00;152651.84;5021026;28;20491;-78
2022/02/24 05:19:12;;;;;;;6.40;4.60;;;;;;;5.00;100.00;152645.41;5019258;28;20805;-78
2022/02/24 05:21:47;;;;;;;5.00;4.50;;;;;;;4.92;100.00;152627.34;5003377;28;20468;-78
2022/02/24 05:24:23;;;;;;;5.30;4.50;;;;;;;4.95;100.00;152632.53;5008389;28;20935;-79
2022/02/24 05:26:58;;;;;;;5.50;4.90;;;;;;;4.88;100.00;152617.06;5007933;28;20859;-79
2022/02/24 05:29:35;;;;;;;4.53;4.13;;;;;;;4.81;100.00;152599.03;5020559;28;20448;-79
2022/02/24 05:32:11;;;;;;;5.20;4.70;;;;;;;4.80;100.00;152595.13;5005921;28;20535;-79
2022/02/24 05:34:47;;;;;;;6.60;5.43;;;;;;;4.77;100.00;152588.69;5021272;28;20936;-79
2022/02/24 05:37:26;;;;;;;5.80;4.70;;;;;;;4.76;100.00;152584.84;5004444;28;20462;-79
2022/02/24 05:40:02;;;;;;;4.90;4.20;;;;;;;4.72;100.00;152575.81;5009436;28;20445;-79
2022/02/24 05:42:38;;;;;;;5.90;4.53;;;;;;;4.70;100.00;152570.66;5026722;28;20475;-79
2022/02/24 05:45:15;;;;;;;4.83;4.07;;;;;;;4.66;100.00;152560.34;5005626;28;20510;-79
2022/02/24 05:47:51;;;;;;;5.63;4.40;;;;;;;4.65;100.00;152557.78;5028198;28;20441;-79
2022/02/24 05:50:26;;;;;;;5.20;4.70;;;;;;;4.61;100.00;152547.47;5027218;28;20471;-79
2022/02/24 05:53:03;;;;;;;4.97;4.47;;;;;;;4.56;100.00;152534.59;5025272;28;20457;-79
2022/02/24 05:55:39;;;;;;;5.80;5.20;;;;;;;4.52;100.00;152524.28;5007684;28;20784;-79
2022/02/24 05:58:14;;;;;;;5.50;5.00;;;;;;;4.50;100.00;152519.09;5023386;28;20980;-79
2022/02/24 06:00:51;;;;;;;5.47;4.97;;;;;;;4.49;100.00;152516.56;5015043;28;20794;-78
2022/02/24 06:03:26;;;;;;;6.00;4.97;;;;;;;4.47;100.00;152510.13;5014416;28;20439;-79
2022/02/24 06:06:02;;;;;;;6.80;5.20;;;;;;;4.44;100.00;152503.69;5028389;28;20958;-78
2022/02/24 06:08:38;;;;;;;6.50;4.93;;;;;;;4.43;100.00;152499.78;5042594;28;20484;-78
2022/02/24 06:11:13;;;;;;;5.83;5.23;;;;;;;4.39;100.00;152490.81;5028999;28;20479;-79
2022/02/24 06:13:49;;;;;;;6.93;4.90;;;;;;;4.40;100.00;152492.06;5026794;28;20932;-78
2022/02/24 06:16:26;;;;;;;6.60;5.93;;;;;;;4.34;100.00;152476.63;5012208;28;20448;-79
2022/02/24 06:19:01;;;;;;;6.90;5.20;;;;;;;4.36;100.00;152481.78;5037892;28;20530;-79
2022/02/24 06:21:37;;;;;;;6.80;5.57;;;;;;;4.32;100.00;152474.03;5029693;28;20838;-79
2022/02/24 06:24:13;;;;;;;6.60;5.27;;;;;;;4.31;100.00;152470.19;5026699;28;20815;-79
2022/02/24 06:26:48;;;;;;;6.53;5.50;;;;;;;4.26;100.00;152457.31;5028658;28;20452;-79
2022/02/24 06:29:24;;;;;;;7.43;6.40;;;;;;;4.28;100.00;152463.75;5029271;28;20455;-79
2022/02/24 06:32:01;;;;;;;7.43;5.30;;;;;;;4.29;100.00;152465.00;5038176;28;20451;-78
2022/02/24 06:34:36;;;;;;;6.70;5.97;;;;;;;4.29;100.00;152466.31;5039115;28;20551;-79
2022/02/24 06:37:12;;;;;;;6.80;5.90;;;;;;;4.23;100.00;152449.59;5027154;28;20451;-78
2022/02/24 06:39:48;;;;;;;6.73;5.80;;;;;;;4.22;100.00;152448.28;5042809;28;20443;-79
2022/02/24 06:42:23;;;;;;;7.10;5.90;;;;;;;4.24;100.00;152453.44;5026143;28;20486;-79
2022/02/24 06:44:59;;;;;;;8.47;6.83;;;;;;;4.23;100.00;152449.59;5043746;28;20542;-79
2022/02/24 06:47:36;;;;;;;7.90;6.13;;;;;;;4.22;100.00;152447.00;5024837;28;20551;-78
2022/02/24 06:50:12;;;;;;;6.53;5.63;;;;;;;4.22;100.00;152447.00;5011107;28;20483;-78
2022/02/24 06:52:48;;;;;;;9.10;6.77;;;;;;;4.21;100.00;152444.41;5045102;28;20447;-79
2022/02/24 06:55:24;;;;;;;7.90;6.40;;;;;;;4.23;100.00;152450.88;5029165;28;20467;-79
2022/02/24 06:58:03;;;;;;;6.37;5.73;;;;;;;4.27;100.00;152459.88;5012163;28;20490;-79
2022/02/24 07:00:40;;;;;;;7.43;6.63;;;;;;;4.25;100.00;152454.72;5042227;28;20522;-78
2022/02/24 07:03:16;;;;;;;7.70;6.03;;;;;;;4.28;100.00;152462.47;5043716;28;20467;-78
2022/02/24 07:05:52;;;;;;;8.63;6.30;;;;;;;4.32;100.00;152472.75;5012949;28;20807;-78
2022/02/24 07:08:28;;;;;;;9.43;6.73;;;;;;;4.31;100.00;152470.19;5006520;28;20448;-78
2022/02/24 07:11:04;;;;;;;9.53;6.97;;;;;;;4.33;100.00;152475.34;5031110;28;20443;-78
2022/02/24 07:13:43;;;;;;;10.80;7.00;;;;;;;4.39;100.00;152489.50;5025795;28;20546;-78
2022/02/24 07:16:19;;;;;;;7.37;6.60;;;;;;;4.43;100.00;152501.09;5043279;28;20814;-79
2022/02/24 07:18:56;;;;;;;10.07;7.00;;;;;;;4.50;100.00;152517.84;5039836;28;20809;-79
2022/02/24 07:21:32;;;;;;;8.13;7.33;;;;;;;4.52;100.00;152524.28;5024537;28;20475;-79
2022/02/24 07:24:08;;;;;;;9.30;7.10;;;;;;;4.58;100.00;152538.47;5029002;28;20915;-78
2022/02/24 07:26:44;;;;;;;8.70;6.60;;;;;;;4.65;100.00;152556.50;5025789;28;20997;-78
2022/02/24 07:29:19;;;;;;;7.30;6.33;;;;;;;4.69;100.00;152568.06;5042545;28;20451;-78
2022/02/24 07:31:55;;;;;;;8.77;7.17;;;;;;;4.76;100.00;152586.16;5038080;28;20456;-79
2022/02/24 07:34:23;;;;;;;7.83;6.90;;;;;;;4.87;100.00;152614.47;5028514;28;20489;-79
2022/02/24 07:37:10;;;;;;;7.73;6.60;;;;;;;5.00;100.00;152646.72;5023531;28;20526;-79
2022/02/24 07:39:45;;;;;;;6.90;6.20;;;;;;;5.16;100.00;152686.66;5037774;28;20459;-79
2022/02/24 07:42:21;;;;;;;9.17;7.17;;;;;;;5.22;100.00;152703.41;5026326;28;20690;-79
2022/02/24 07:44:57;;;;;;;8.67;7.07;;;;;;;5.34;100.00;152733.06;5026585;28;20459;-79
2022/02/24 07:47:32;;;;;;;9.30;7.13;;;;;;;5.44;100.00;152758.84;5024755;28;20448;-81
2022/02/24 07:50:13;;;;;;;11.63;6.93;;;;;;;5.60;100.00;152800.09;5041409;28;20833;-79
2022/02/24 07:52:49;;;;;;;7.73;6.70;;;;;;;5.74;98.80;152836.22;5024510;28;20452;-79
2022/02/24 07:55:24;;;;;;;9.97;6.83;;;;;;;5.86;98.90;152867.22;5010614;28;20478;-79
2022/02/24 07:58:00;;;;;;;10.63;6.80;;;;;;;5.95;98.27;152890.44;5024497;28;20842;-79
2022/02/24 08:00:37;;;;;;;6.10;5.50;;;;;;;6.02;97.36;152908.50;5042427;28;20922;-79
2022/02/24 08:03:12;;;;;;;7.90;7.00;;;;;;;6.17;97.02;152944.63;5041528;28;21053;-79
2022/02/24 08:05:49;;;;;;;9.43;6.57;;;;;;;6.32;97.36;152983.31;5023317;28;20487;-79
2022/02/24 08:08:25;;;;;;;9.17;6.50;;;;;;;6.47;96.07;153023.31;5025603;28;20574;-79
2022/02/24 08:11:01;;;;;;;7.77;6.53;;;;;;;6.61;95.32;153058.16;5038491;28;20435;-79
2022/02/24 08:13:36;;;;;;;9.70;6.90;;;;;;;6.75;95.08;153094.31;5040825;28;20443;-79
2022/02/24 08:16:12;;;;;;;11.70;7.47;;;;;;;6.88;92.70;153127.88;5002705;28;20842;-79
2022/02/24 08:18:47;;;;;;;8.37;7.07;;;;;;;7.00;91.87;153158.84;5027912;28;20954;-77
2022/02/24 08:21:25;;;;;;;7.60;6.40;;;;;;;6.98;92.89;153153.69;5027076;28;20451;-78
2022/02/24 08:24:00;;;;;;;9.80;6.60;;;;;;;7.01;92.68;153160.13;5026048;28;20435;-80
2022/02/24 08:26:36;;;;;;;10.60;7.47;;;;;;;7.09;91.81;153182.09;5025614;28;20448;-80
2022/02/24 08:29:11;;;;;;;8.90;7.17;;;;;;;7.11;91.47;153187.25;5027634;28;20439;-80
2022/02/24 08:31:47;;;;;;;7.30;6.03;;;;;;;7.26;91.73;153225.97;5040592;28;20562;-80
2022/02/24 08:34:23;;;;;;;7.53;6.37;;;;;;;7.40;89.91;153259.53;5038583;28;20468;-79
2022/02/24 08:37:00;;;;;;;8.17;7.27;;;;;;;7.50;91.26;153285.38;5040890;28;20439;-80
2022/02/24 08:39:37;;;;;;;6.50;5.70;;;;;;;7.64;90.36;153321.56;5024637;28;20436;-79
2022/02/24 08:42:13;;;;;;;6.70;5.73;;;;;;;7.72;88.29;153342.22;5037281;28;20471;-78
2022/02/24 08:44:48;;;;;;;5.80;5.20;;;;;;;7.84;88.07;153373.19;5025429;28;20524;-79
2022/02/24 08:47:25;;;;;;;5.83;5.20;;;;;;;7.94;88.60;153399.09;5041928;28;20459;-79
2022/02/24 08:50:01;;;;;;;6.30;4.83;;;;;;;8.12;88.04;153444.28;5039705;28;20539;-79
2022/02/24 08:52:38;;;;;;;5.73;4.63;;;;;;;8.14;86.59;153450.75;5039409;28;20452;-79
2022/02/24 08:55:14;;;;;;;5.27;4.63;;;;;;;8.26;86.72;153480.50;5010457;28;20443;-79
2022/02/24 08:57:49;;;;;;;6.80;5.47;;;;;;;8.25;85.70;153479.19;5007512;28;20610;-78
2022/02/24 09:00:26;;;;;;;6.47;5.20;;;;;;;8.30;86.03;153490.84;5005474;28;20449;-79
2022/02/24 09:03:01;;;;;;;6.57;5.43;;;;;;;8.44;85.17;153528.34;5005385;28;20468;-79
2022/02/24 09:05:37;;;;;;;5.30;4.80;;;;;;;8.50;85.83;153543.84;5022897;28;20453;-79
2022/02/24 09:08:14;;;;;;;7.90;5.83;;;;;;;8.56;84.05;153558.06;5004721;28;20453;-79
2022/02/24 09:10:50;;;;;;;6.57;4.90;;;;;;;8.66;83.96;153582.66;5017323;28;20448;-79
2022/02/24 09:13:25;;;;;;;5.07;4.53;;;;;;;8.82;82.90;153625.28;5022689;28;20551;-79
2022/02/24 09:16:01;;;;;;;8.67;4.17;;;;;;;8.94;80.94;153656.34;5022185;28;20546;-79
2022/02/24 09:18:36;;;;;;;4.90;4.40;;;;;;;9.00;81.17;153670.56;5004366;28;20457;-79
2022/02/24 09:21:12;;;;;;;6.13;4.50;;;;;;;9.05;80.41;153683.50;5022968;28;20440;-79
2022/02/24 09:23:49;;;;;;;5.20;4.70;;;;;;;9.16;80.75;153711.91;5023126;28;20464;-79
2022/02/24 09:26:25;;;;;;;8.57;5.37;;;;;;;9.14;79.43;153706.75;5023360;28;20781;-79
2022/02/24 09:29:01;;;;;;;7.20;4.93;;;;;;;9.45;78.42;153786.94;5004944;28;20790;-78
2022/02/24 09:31:36;;;;;;;4.53;4.10;;;;;;;9.37;78.61;153766.22;5022029;28;20464;-79
2022/02/24 09:34:12;;;;;;;5.57;4.20;;;;;;;9.29;77.98;153744.28;5022019;28;20461;-79
2022/02/24 09:36:48;;;;;;;5.00;4.43;;;;;;;9.26;78.92;153737.81;5020844;28;20669;-79
2022/02/24 09:39:24;;;;;;;8.10;4.30;;;;;;;9.34;78.33;153758.50;5022228;28;20464;-79
2022/02/24 09:42:00;;;;;;;8.07;4.30;;;;;;;9.43;77.03;153780.47;5021938;28;20495;-79
2022/02/24 09:44:37;;;;;;;4.93;4.33;;;;;;;9.44;78.25;153783.06;4999373;28;20449;-79
2022/02/24 09:47:12;;;;;;;4.67;4.27;;;;;;;9.42;78.09;153779.22;5009839;28;20476;-79
2022/02/24 09:49:48;;;;;;;5.77;4.67;;;;;;;9.57;76.98;153818.00;5020508;28;20509;-79
2022/02/24 09:52:24;;;;;;;5.00;4.50;;;;;;;9.67;77.00;153843.88;5022824;28;20472;-79
2022/02/24 09:55:01;;;;;;;6.17;5.00;;;;;;;9.75;76.99;153863.28;5022415;28;20955;-79
2022/02/24 09:57:36;;;;;;;7.07;3.70;;;;;;;9.77;77.44;153869.75;5019686;28;20480;-79
2022/02/24 10:00:12;;;;;;;4.77;3.77;;;;;;;9.94;76.28;153911.16;5004410;28;20436;-80
2022/02/24 10:02:48;;;;;;;3.70;3.17;;;;;;;9.91;77.26;153904.69;5022539;28;20993;-79
2022/02/24 10:05:24;;;;;;;3.90;2.80;;;;;;;9.99;75.26;153924.09;5021941;28;20440;-79
2022/02/24 10:08:09;;;;;;;3.03;2.50;;;;;;;10.36;72.95;154019.94;5020956;28;20448;-79
2022/02/24 10:10:46;;;;;;;3.23;2.60;;;;;;;10.39;73.74;154029.00;5004796;28;20449;-79
2022/02/24 10:13:22;;;;;;;5.80;2.30;;;;;;;10.57;72.98;154074.31;5022794;28;20471;-79
2022/02/24 10:15:59;;;;;;;3.07;2.40;;;;;;;10.74;72.32;154118.34;5021930;28;20452;-79
2022/02/24 10:18:34;;;;;;;5.07;2.67;;;;;;;10.85;70.64;154145.53;5005760;28;20445;-79
2022/02/24 10:21:17;;;;;;;2.90;2.00;;;;;;;10.87;74.10;154152.03;4989299;28;20449;-79
2022/02/24 10:23:53;;;;;;;3.27;2.00;;;;;;;11.00;71.34;154184.38;5025785;28;20460;-79
2022/02/24 10:26:30;;;;;;;2.47;1.90;;;;;;;11.07;69.43;154202.50;4993663;28;20475;-79
2022/02/24 10:29:08;;;;;;;6.47;2.30;;;;;;;11.15;69.89;154221.94;5008504;28;20453;-79
2022/02/24 10:31:46;;;;;;;3.93;2.80;;;;;;;11.02;72.25;154190.84;5008256;28;20548;-79
2022/02/24 10:34:21;;;;;;;3.40;2.20;;;;;;;11.19;72.65;154232.31;5009013;28;20441;-79
2022/02/24 10:36:57;;;;;;;29.43;3.03;;;;;;;11.29;69.04;154258.22;5026010;28;20948;-79
2022/02/24 10:39:35;;;;;;;3.20;2.17;;;;;;;11.19;68.38;154232.31;5017843;28;20542;-79
2022/02/24 10:42:12;;;;;;;2.73;1.70;;;;;;;11.19;67.18;154233.63;5005474;28;20872;-77
2022/02/24 10:45:06;;;;;;;3.07;2.00;;;;;;;11.17;73.40;154227.16;5021617;28;21038;-80
2022/02/24 10:47:55;;;;;;;2.83;2.00;;;;;;;11.34;68.06;154272.47;5024366;28;20457;-80
2022/02/24 10:50:56;;;;;;;3.23;2.17;;;;;;;11.32;68.12;154267.31;5007149;28;20488;-80
2022/02/24 10:53:33;;;;;;;3.03;1.80;;;;;;;11.28;69.07;154255.66;4983428;28;20869;-80
2022/02/24 10:56:09;;;;;;;2.93;2.13;;;;;;;11.30;68.44;154260.81;4991987;28;20465;-80
2022/02/24 10:58:47;;;;;;;2.63;1.70;;;;;;;11.37;67.96;154280.25;5041335;28;20474;-80
2022/02/24 11:01:24;;;;;;;2.53;2.27;;;;;;;11.37;68.13;154278.94;5038200;28;20531;-80
2022/02/24 11:04:01;;;;;;;2.83;2.10;;;;;;;11.38;70.67;154281.56;5027337;28;20455;-81
2022/02/24 11:06:38;;;;;;;4.33;2.73;;;;;;;11.35;71.53;154273.78;5045435;28;20822;-80
2022/02/24 11:09:14;;;;;;;4.30;2.17;;;;;;;11.42;66.23;154293.19;5045160;28;20970;-80
2022/02/24 11:11:50;;;;;;;2.70;2.50;;;;;;;11.47;67.28;154304.84;5025600;28;20453;-80
2022/02/24 11:14:27;;;;;;;4.80;2.20;;;;;;;11.52;67.64;154317.81;5043974;28;20927;-80
2022/02/24 11:17:05;;;;;;;3.57;1.70;;;;;;;11.65;66.07;154351.50;5027644;28;20455;-80
2022/02/24 11:19:43;;;;;;;1.83;1.63;;;;;;;11.68;68.74;154359.28;5041962;28;20542;-81
2022/02/24 11:22:19;;;;;;;2.87;2.17;;;;;;;11.64;66.77;154348.94;5042961;28;20447;-80
2022/02/24 11:24:56;;;;;;;2.97;2.30;;;;;;;11.66;67.74;154352.78;5042175;28;20443;-80
2022/02/24 11:27:35;;;;;;;2.50;1.80;;;;;;;11.72;66.48;154369.72;5042960;28;20513;-80
2022/02/24 11:30:17;;;;;;;1.97;1.47;;;;;;;11.85;65.09;154402.09;5009157;28;20938;-80
2022/02/24 11:32:53;;;;;;;2.73;2.00;;;;;;;11.89;69.70;154412.44;5043076;28;20444;-80
2022/02/24 11:35:31;;;;;;;2.40;1.60;;;;;;;11.92;65.92;154421.53;5042744;28;20862;-80
2022/02/24 11:38:11;;;;;;;3.53;2.20;;;;;;;11.95;65.13;154429.31;5046056;28;20793;-80
2022/02/24 11:40:57;;;;;;;2.13;1.60;;;;;;;12.25;61.90;154504.50;5042075;28;20475;-80
2022/02/24 11:43:33;;;;;;;7.33;4.53;;;;;;;12.11;63.00;154470.81;5042748;28;20839;-80
2022/02/24 11:46:11;;;;;;;2.03;1.60;;;;;;;12.14;63.39;154478.59;5012392;28;20460;-80
2022/02/24 11:48:48;;;;;;;1.87;1.30;;;;;;;12.14;60.71;154478.59;5011048;28;20460;-80
2022/02/24 11:51:23;;;;;;;4.73;1.53;;;;;;;12.23;61.00;154501.91;5027420;28;20459;-80
2022/02/24 11:54:00;;;;;;;1.97;1.60;;;;;;;12.29;58.72;154514.84;5044011;28;20467;-80
2022/02/24 11:56:36;;;;;;;2.40;1.30;;;;;;;12.25;61.60;154504.50;5043632;28;20938;-80
2022/02/24 11:59:27;;;;;;;3.43;1.40;;;;;;;12.33;58.08;154525.25;5021576;28;20912;-80
2022/02/24 12:02:10;;;;;;;3.20;2.00;;;;;;;12.33;59.58;154525.25;5028284;28;20819;-80
2022/02/24 12:04:46;;;;;;;2.03;1.30;;;;;;;12.27;63.14;154509.69;5044481;28;20463;-80
2022/02/24 12:07:24;;;;;;;2.07;1.43;;;;;;;12.26;61.68;154508.38;5047944;28;20454;-80
2022/02/24 12:10:10;;;;;;;2.53;1.43;;;;;;;12.33;58.07;154525.25;5027747;28;21174;-80
2022/02/24 12:12:46;;;;;;;3.97;1.47;;;;;;;12.40;61.14;154543.41;5027621;28;20469;-78